sensor_id;sensor_type;location;lat;lon;timestamp;temperature;humidity
68801;SHT31;55784;50.734;7.086;2022-09-03T00:00:57;17.47;56.13
68801;SHT31;55784;50.734;7.086;2022-09-03T00:03:39;17.47;56.31
68801;SHT31;55784;50.734;7.086;2022-09-03T00:06:17;17.42;56.32
68801;SHT31;55784;50.734;7.086;2022-09-03T00:08:56;17.37;56.33
68801;SHT31;55784;50.734;7.086;2022-09-03T00:11:48;17.33;56.18
68801;SHT31;55784;50.734;7.086;2022-09-03T00:14:20;17.33;55.85
68801;SHT31;55784;50.734;7.086;2022-09-03T00:16:51;17.32;55.68
68801;SHT31;55784;50.734;7.086;2022-09-03T00:19:23;17.30;55.16
68801;SHT31;55784;50.734;7.086;2022-09-03T00:21:55;17.29;54.95
68801;SHT31;55784;50.734;7.086;2022-09-03T00:24:25;17.27;55.03
68801;SHT31;55784;50.734;7.086;2022-09-03T00:26:54;17.26;54.62
68801;SHT31;55784;50.734;7.086;2022-09-03T00:29:28;17.24;54.51
68801;SHT31;55784;50.734;7.086;2022-09-03T00:32:07;17.24;54.57
68801;SHT31;55784;50.734;7.086;2022-09-03T00:34:37;17.20;54.90
68801;SHT31;55784;50.734;7.086;2022-09-03T00:37:06;17.24;55.61
68801;SHT31;55784;50.734;7.086;2022-09-03T00:39:32;17.23;56.19
68801;SHT31;55784;50.734;7.086;2022-09-03T00:45:12;17.16;56.89
68801;SHT31;55784;50.734;7.086;2022-09-03T00:53:16;17.10;56.39
68801;SHT31;55784;50.734;7.086;2022-09-03T01:01:22;17.08;57.18
68801;SHT31;55784;50.734;7.086;2022-09-03T01:06:39;16.99;57.65
68801;SHT31;55784;50.734;7.086;2022-09-03T01:09:15;16.92;57.96
68801;SHT31;55784;50.734;7.086;2022-09-03T01:31:10;16.54;57.88
68801;SHT31;55784;50.734;7.086;2022-09-03T01:34:07;16.51;57.63
68801;SHT31;55784;50.734;7.086;2022-09-03T01:36:33;16.51;57.43
68801;SHT31;55784;50.734;7.086;2022-09-03T01:39:04;16.54;57.07
68801;SHT31;55784;50.734;7.086;2022-09-03T01:56:14;16.55;56.71
68801;SHT31;55784;50.734;7.086;2022-09-03T01:58:46;16.62;56.22
68801;SHT31;55784;50.734;7.086;2022-09-03T02:01:30;16.58;55.94
68801;SHT31;55784;50.734;7.086;2022-09-03T02:03:57;16.59;56.00
68801;SHT31;55784;50.734;7.086;2022-09-03T02:06:25;16.64;55.69
68801;SHT31;55784;50.734;7.086;2022-09-03T02:08:51;16.67;55.76
68801;SHT31;55784;50.734;7.086;2022-09-03T02:11:17;16.61;55.88
68801;SHT31;55784;50.734;7.086;2022-09-03T02:13:53;16.65;55.89
68801;SHT31;55784;50.734;7.086;2022-09-03T02:16:29;16.68;56.19
68801;SHT31;55784;50.734;7.086;2022-09-03T02:18:58;16.76;56.26
68801;SHT31;55784;50.734;7.086;2022-09-03T02:21:27;16.78;56.27
68801;SHT31;55784;50.734;7.086;2022-09-03T02:23:53;16.75;56.27
68801;SHT31;55784;50.734;7.086;2022-09-03T02:26:21;16.69;56.31
68801;SHT31;55784;50.734;7.086;2022-09-03T02:28:49;16.75;56.16
68801;SHT31;55784;50.734;7.086;2022-09-03T02:31:14;16.71;56.29
68801;SHT31;55784;50.734;7.086;2022-09-03T02:33:42;16.71;56.51
68801;SHT31;55784;50.734;7.086;2022-09-03T02:36:11;16.68;56.53
68801;SHT31;55784;50.734;7.086;2022-09-03T02:38:36;16.64;56.81
68801;SHT31;55784;50.734;7.086;2022-09-03T02:41:02;16.62;56.78
68801;SHT31;55784;50.734;7.086;2022-09-03T02:43:36;16.54;57.93
68801;SHT31;55784;50.734;7.086;2022-09-03T02:46:04;16.58;58.70
68801;SHT31;55784;50.734;7.086;2022-09-03T02:48:32;16.54;59.01
68801;SHT31;55784;50.734;7.086;2022-09-03T02:50:57;16.51;59.03
68801;SHT31;55784;50.734;7.086;2022-09-03T02:53:23;16.51;59.05
68801;SHT31;55784;50.734;7.086;2022-09-03T02:55:49;16.48;59.01
68801;SHT31;55784;50.734;7.086;2022-09-03T02:58:14;16.45;59.22
68801;SHT31;55784;50.734;7.086;2022-09-03T03:00:40;16.38;59.20
68801;SHT31;55784;50.734;7.086;2022-09-03T03:03:05;16.45;59.08
68801;SHT31;55784;50.734;7.086;2022-09-03T03:05:48;16.44;58.83
68801;SHT31;55784;50.734;7.086;2022-09-03T03:08:14;16.41;58.99
68801;SHT31;55784;50.734;7.086;2022-09-03T03:10:41;16.37;58.96
68801;SHT31;55784;50.734;7.086;2022-09-03T03:13:09;16.24;59.07
68801;SHT31;55784;50.734;7.086;2022-09-03T03:15:34;16.16;59.45
68801;SHT31;55784;50.734;7.086;2022-09-03T03:18:00;16.08;59.47
68801;SHT31;55784;50.734;7.086;2022-09-03T03:20:25;16.14;59.37
68801;SHT31;55784;50.734;7.086;2022-09-03T03:22:50;16.24;59.19
68801;SHT31;55784;50.734;7.086;2022-09-03T03:25:16;16.20;59.13
68801;SHT31;55784;50.734;7.086;2022-09-03T03:27:41;16.17;59.24
68801;SHT31;55784;50.734;7.086;2022-09-03T03:30:08;16.11;59.26
68801;SHT31;55784;50.734;7.086;2022-09-03T03:32:38;16.06;59.42
68801;SHT31;55784;50.734;7.086;2022-09-03T03:35:04;16.14;59.40
68801;SHT31;55784;50.734;7.086;2022-09-03T03:37:30;16.14;59.05
68801;SHT31;55784;50.734;7.086;2022-09-03T03:39:56;16.16;59.03
68801;SHT31;55784;50.734;7.086;2022-09-03T03:42:21;16.14;59.30
68801;SHT31;55784;50.734;7.086;2022-09-03T03:44:46;16.17;59.60
68801;SHT31;55784;50.734;7.086;2022-09-03T03:47:11;16.16;59.81
68801;SHT31;55784;50.734;7.086;2022-09-03T03:49:37;16.16;59.92
68801;SHT31;55784;50.734;7.086;2022-09-03T03:52:03;16.16;59.73
68801;SHT31;55784;50.734;7.086;2022-09-03T03:54:29;16.14;59.95
68801;SHT31;55784;50.734;7.086;2022-09-03T03:56:54;16.16;60.45
68801;SHT31;55784;50.734;7.086;2022-09-03T03:59:20;16.21;60.79
68801;SHT31;55784;50.734;7.086;2022-09-03T04:01:45;16.24;60.61
68801;SHT31;55784;50.734;7.086;2022-09-03T04:04:10;16.30;60.89
68801;SHT31;55784;50.734;7.086;2022-09-03T04:06:36;16.35;60.88
68801;SHT31;55784;50.734;7.086;2022-09-03T04:09:03;16.38;60.47
68801;SHT31;55784;50.734;7.086;2022-09-03T04:11:28;16.41;60.33
68801;SHT31;55784;50.734;7.086;2022-09-03T04:13:54;16.47;60.21
68801;SHT31;55784;50.734;7.086;2022-09-03T04:16:24;16.44;60.26
68801;SHT31;55784;50.734;7.086;2022-09-03T04:18:52;16.42;60.51
68801;SHT31;55784;50.734;7.086;2022-09-03T04:21:20;16.45;60.77
68801;SHT31;55784;50.734;7.086;2022-09-03T04:23:47;16.45;60.65
68801;SHT31;55784;50.734;7.086;2022-09-03T04:26:19;16.44;60.36
68801;SHT31;55784;50.734;7.086;2022-09-03T04:28:44;16.57;59.67
68801;SHT31;55784;50.734;7.086;2022-09-03T04:31:12;16.62;59.11
68801;SHT31;55784;50.734;7.086;2022-09-03T04:33:38;16.69;58.94
68801;SHT31;55784;50.734;7.086;2022-09-03T04:36:15;16.71;58.78
68801;SHT31;55784;50.734;7.086;2022-09-03T04:38:44;16.76;58.69
68801;SHT31;55784;50.734;7.086;2022-09-03T04:41:12;16.85;58.48
68801;SHT31;55784;50.734;7.086;2022-09-03T04:43:38;16.83;58.53
68801;SHT31;55784;50.734;7.086;2022-09-03T04:46:05;16.85;58.50
68801;SHT31;55784;50.734;7.086;2022-09-03T04:48:33;16.88;58.66
68801;SHT31;55784;50.734;7.086;2022-09-03T04:51:19;16.96;58.41
68801;SHT31;55784;50.734;7.086;2022-09-03T04:53:46;16.98;58.56
68801;SHT31;55784;50.734;7.086;2022-09-03T04:56:18;17.08;58.62
68801;SHT31;55784;50.734;7.086;2022-09-03T04:58:45;17.09;58.56
68801;SHT31;55784;50.734;7.086;2022-09-03T05:01:20;17.20;58.53
68801;SHT31;55784;50.734;7.086;2022-09-03T05:03:46;17.29;58.03
68801;SHT31;55784;50.734;7.086;2022-09-03T05:06:12;17.33;57.92
68801;SHT31;55784;50.734;7.086;2022-09-03T05:08:41;17.34;57.94
68801;SHT31;55784;50.734;7.086;2022-09-03T05:11:07;17.40;57.53
68801;SHT31;55784;50.734;7.086;2022-09-03T05:13:34;17.44;56.87
68801;SHT31;55784;50.734;7.086;2022-09-03T05:16:02;17.53;56.46
68801;SHT31;55784;50.734;7.086;2022-09-03T05:18:28;17.60;56.22
68801;SHT31;55784;50.734;7.086;2022-09-03T05:20:58;17.70;55.67
68801;SHT31;55784;50.734;7.086;2022-09-03T05:23:25;17.78;54.86
68801;SHT31;55784;50.734;7.086;2022-09-03T05:25:57;17.88;55.42
68801;SHT31;55784;50.734;7.086;2022-09-03T05:28:24;17.95;54.33
68801;SHT31;55784;50.734;7.086;2022-09-03T05:31:02;18.01;53.77
68801;SHT31;55784;50.734;7.086;2022-09-03T05:33:28;18.04;53.88
68801;SHT31;55784;50.734;7.086;2022-09-03T05:35:54;18.11;54.20
68801;SHT31;55784;50.734;7.086;2022-09-03T05:38:19;18.16;54.03
68801;SHT31;55784;50.734;7.086;2022-09-03T05:40:45;18.28;54.65
68801;SHT31;55784;50.734;7.086;2022-09-03T05:43:10;18.34;54.22
68801;SHT31;55784;50.734;7.086;2022-09-03T05:45:35;18.44;54.19
68801;SHT31;55784;50.734;7.086;2022-09-03T05:48:01;18.39;55.00
68801;SHT31;55784;50.734;7.086;2022-09-03T05:50:27;18.44;55.24
68801;SHT31;55784;50.734;7.086;2022-09-03T05:52:52;18.48;55.21
68801;SHT31;55784;50.734;7.086;2022-09-03T05:55:18;18.51;55.11
68801;SHT31;55784;50.734;7.086;2022-09-03T05:57:43;18.52;55.14
68801;SHT31;55784;50.734;7.086;2022-09-03T06:00:10;18.56;55.12
68801;SHT31;55784;50.734;7.086;2022-09-03T06:02:36;18.58;55.12
68801;SHT31;55784;50.734;7.086;2022-09-03T06:05:01;18.69;54.74
68801;SHT31;55784;50.734;7.086;2022-09-03T06:07:26;18.75;54.46
68801;SHT31;55784;50.734;7.086;2022-09-03T06:09:51;18.87;54.05
68801;SHT31;55784;50.734;7.086;2022-09-03T06:12:18;19.00;53.84
68801;SHT31;55784;50.734;7.086;2022-09-03T06:14:44;19.11;53.41
68801;SHT31;55784;50.734;7.086;2022-09-03T06:17:09;19.27;52.71
68801;SHT31;55784;50.734;7.086;2022-09-03T06:19:36;19.44;52.61
68801;SHT31;55784;50.734;7.086;2022-09-03T06:22:02;19.58;51.63
68801;SHT31;55784;50.734;7.086;2022-09-03T06:24:27;19.77;51.30
68801;SHT31;55784;50.734;7.086;2022-09-03T06:26:55;19.93;50.77
68801;SHT31;55784;50.734;7.086;2022-09-03T06:29:20;20.16;49.83
68801;SHT31;55784;50.734;7.086;2022-09-03T06:31:46;20.35;49.29
68801;SHT31;55784;50.734;7.086;2022-09-03T06:34:15;20.47;48.94
68801;SHT31;55784;50.734;7.086;2022-09-03T06:36:43;20.60;48.43
68801;SHT31;55784;50.734;7.086;2022-09-03T06:39:08;20.79;48.05
68801;SHT31;55784;50.734;7.086;2022-09-03T06:41:33;20.98;47.71
68801;SHT31;55784;50.734;7.086;2022-09-03T06:44:01;21.12;47.66
68801;SHT31;55784;50.734;7.086;2022-09-03T06:46:29;21.03;47.29
68801;SHT31;55784;50.734;7.086;2022-09-03T06:48:58;21.12;47.29
68801;SHT31;55784;50.734;7.086;2022-09-03T06:51:25;21.06;47.09
68801;SHT31;55784;50.734;7.086;2022-09-03T06:54:14;21.01;47.13
68801;SHT31;55784;50.734;7.086;2022-09-03T06:56:40;20.88;47.60
68801;SHT31;55784;50.734;7.086;2022-09-03T06:59:10;20.90;47.24
68801;SHT31;55784;50.734;7.086;2022-09-03T07:01:37;20.90;47.17
68801;SHT31;55784;50.734;7.086;2022-09-03T07:04:05;20.91;47.22
68801;SHT31;55784;50.734;7.086;2022-09-03T07:06:39;20.87;47.44
68801;SHT31;55784;50.734;7.086;2022-09-03T07:09:09;20.91;47.26
68801;SHT31;55784;50.734;7.086;2022-09-03T07:11:35;20.96;47.44
68801;SHT31;55784;50.734;7.086;2022-09-03T07:14:02;20.98;47.42
68801;SHT31;55784;50.734;7.086;2022-09-03T07:16:32;20.91;47.14
68801;SHT31;55784;50.734;7.086;2022-09-03T07:18:57;20.91;47.39
68801;SHT31;55784;50.734;7.086;2022-09-03T07:21:26;20.90;47.55
68801;SHT31;55784;50.734;7.086;2022-09-03T07:23:52;20.84;48.20
68801;SHT31;55784;50.734;7.086;2022-09-03T07:26:27;20.63;48.90
68801;SHT31;55784;50.734;7.086;2022-09-03T07:28:53;20.62;49.81
68801;SHT31;55784;50.734;7.086;2022-09-03T07:33:52;20.44;52.29
68801;SHT31;55784;50.734;7.086;2022-09-03T07:36:19;20.32;53.85
68801;SHT31;55784;50.734;7.086;2022-09-03T07:38:45;20.01;54.32
68801;SHT31;55784;50.734;7.086;2022-09-03T07:41:14;20.01;56.28
68801;SHT31;55784;50.734;7.086;2022-09-03T07:43:42;19.88;57.35
68801;SHT31;55784;50.734;7.086;2022-09-03T07:46:08;19.88;59.26
68801;SHT31;55784;50.734;7.086;2022-09-03T07:48:40;19.75;60.07
68801;SHT31;55784;50.734;7.086;2022-09-03T07:51:07;19.58;61.74
68801;SHT31;55784;50.734;7.086;2022-09-03T07:53:33;19.53;61.99
68801;SHT31;55784;50.734;7.086;2022-09-03T07:56:04;19.48;62.93
68801;SHT31;55784;50.734;7.086;2022-09-03T07:58:30;19.57;62.30
68801;SHT31;55784;50.734;7.086;2022-09-03T08:00:56;19.70;63.15
68801;SHT31;55784;50.734;7.086;2022-09-03T08:03:24;19.72;63.27
68801;SHT31;55784;50.734;7.086;2022-09-03T08:05:50;19.54;63.48
68801;SHT31;55784;50.734;7.086;2022-09-03T08:08:15;19.54;63.99
68801;SHT31;55784;50.734;7.086;2022-09-03T08:10:42;19.62;64.42
68801;SHT31;55784;50.734;7.086;2022-09-03T08:13:07;19.50;63.92
68801;SHT31;55784;50.734;7.086;2022-09-03T08:15:33;19.44;64.66
68801;SHT31;55784;50.734;7.086;2022-09-03T08:17:59;19.35;65.15
68801;SHT31;55784;50.734;7.086;2022-09-03T08:20:26;19.19;65.39
68801;SHT31;55784;50.734;7.086;2022-09-03T08:22:52;19.00;66.25
68801;SHT31;55784;50.734;7.086;2022-09-03T08:25:17;19.04;67.05
68801;SHT31;55784;50.734;7.086;2022-09-03T08:27:42;19.07;67.52
68801;SHT31;55784;50.734;7.086;2022-09-03T08:30:08;19.06;67.80
68801;SHT31;55784;50.734;7.086;2022-09-03T08:32:37;19.16;67.42
68801;SHT31;55784;50.734;7.086;2022-09-03T08:35:04;19.07;67.81
68801;SHT31;55784;50.734;7.086;2022-09-03T08:37:30;19.10;68.00
68801;SHT31;55784;50.734;7.086;2022-09-03T08:39:57;19.35;68.15
68801;SHT31;55784;50.734;7.086;2022-09-03T08:42:28;19.61;66.68
68801;SHT31;55784;50.734;7.086;2022-09-03T08:45:00;19.82;65.68
68801;SHT31;55784;50.734;7.086;2022-09-03T08:47:37;19.91;65.54
68801;SHT31;55784;50.734;7.086;2022-09-03T08:50:24;20.06;64.83
68801;SHT31;55784;50.734;7.086;2022-09-03T08:52:54;20.16;64.65
68801;SHT31;55784;50.734;7.086;2022-09-03T08:55:28;20.36;65.68
68801;SHT31;55784;50.734;7.086;2022-09-03T09:00:39;20.79;63.82
68801;SHT31;55784;50.734;7.086;2022-09-03T09:05:47;21.10;61.44
68801;SHT31;55784;50.734;7.086;2022-09-03T09:11:11;21.39;60.90
68801;SHT31;55784;50.734;7.086;2022-09-03T09:13:47;21.57;59.44
68801;SHT31;55784;50.734;7.086;2022-09-03T09:16:35;21.81;59.52
68801;SHT31;55784;50.734;7.086;2022-09-03T09:21:55;22.09;57.16
68801;SHT31;55784;50.734;7.086;2022-09-03T09:24:28;22.19;57.38
68801;SHT31;55784;50.734;7.086;2022-09-03T09:26:59;22.39;57.71
68801;SHT31;55784;50.734;7.086;2022-09-03T09:29:26;22.64;56.65
68801;SHT31;55784;50.734;7.086;2022-09-03T09:31:53;22.80;54.98
68801;SHT31;55784;50.734;7.086;2022-09-03T09:34:19;23.04;53.96
68801;SHT31;55784;50.734;7.086;2022-09-03T09:36:51;23.37;52.65
68801;SHT31;55784;50.734;7.086;2022-09-03T09:39:17;23.44;52.68
68801;SHT31;55784;50.734;7.086;2022-09-03T09:42:05;23.37;52.28
68801;SHT31;55784;50.734;7.086;2022-09-03T09:44:35;23.61;51.87
68801;SHT31;55784;50.734;7.086;2022-09-03T09:47:23;23.46;52.07
68801;SHT31;55784;50.734;7.086;2022-09-03T09:52:26;23.65;51.67
68801;SHT31;55784;50.734;7.086;2022-09-03T09:55:08;23.56;51.13
68801;SHT31;55784;50.734;7.086;2022-09-03T09:57:52;23.59;50.59
68801;SHT31;55784;50.734;7.086;2022-09-03T10:00:21;23.46;50.29
68801;SHT31;55784;50.734;7.086;2022-09-03T10:03:06;23.37;50.26
68801;SHT31;55784;50.734;7.086;2022-09-03T10:05:35;23.41;50.45
68801;SHT31;55784;50.734;7.086;2022-09-03T10:08:05;23.48;50.27
68801;SHT31;55784;50.734;7.086;2022-09-03T10:10:47;23.22;50.81
68801;SHT31;55784;50.734;7.086;2022-09-03T10:13:38;23.01;51.36
68801;SHT31;55784;50.734;7.086;2022-09-03T10:17:00;23.24;50.75
68801;SHT31;55784;50.734;7.086;2022-09-03T10:22:42;23.55;50.55
68801;SHT31;55784;50.734;7.086;2022-09-03T10:25:13;23.77;49.58
68801;SHT31;55784;50.734;7.086;2022-09-03T10:27:39;24.05;49.51
68801;SHT31;55784;50.734;7.086;2022-09-03T10:30:11;24.20;48.77
68801;SHT31;55784;50.734;7.086;2022-09-03T10:32:47;24.23;48.94
68801;SHT31;55784;50.734;7.086;2022-09-03T10:35:30;24.28;48.95
68801;SHT31;55784;50.734;7.086;2022-09-03T10:38:09;24.58;48.50
68801;SHT31;55784;50.734;7.086;2022-09-03T10:40:44;24.72;48.29
68801;SHT31;55784;50.734;7.086;2022-09-03T10:43:29;24.77;48.19
68801;SHT31;55784;50.734;7.086;2022-09-03T10:46:09;24.75;48.49
68801;SHT31;55784;50.734;7.086;2022-09-03T10:51:41;24.95;48.07
68801;SHT31;55784;50.734;7.086;2022-09-03T10:59:50;24.99;48.21
68801;SHT31;55784;50.734;7.086;2022-09-03T11:05:14;25.43;47.65
68801;SHT31;55784;50.734;7.086;2022-09-03T11:07:48;25.56;47.05
68801;SHT31;55784;50.734;7.086;2022-09-03T11:10:28;25.86;46.57
68801;SHT31;55784;50.734;7.086;2022-09-03T11:13:09;25.86;47.10
68801;SHT31;55784;50.734;7.086;2022-09-03T11:15:40;25.77;47.24
68801;SHT31;55784;50.734;7.086;2022-09-03T11:18:30;25.67;47.31
68801;SHT31;55784;50.734;7.086;2022-09-03T11:21:03;25.65;47.43
68801;SHT31;55784;50.734;7.086;2022-09-03T11:23:32;25.82;47.20
68801;SHT31;55784;50.734;7.086;2022-09-03T11:26:06;25.86;46.99
68801;SHT31;55784;50.734;7.086;2022-09-03T11:28:53;25.76;47.23
68801;SHT31;55784;50.734;7.086;2022-09-03T11:31:45;25.46;48.08
68801;SHT31;55784;50.734;7.086;2022-09-03T11:36:49;25.22;48.36
68801;SHT31;55784;50.734;7.086;2022-09-03T11:42:19;25.49;47.96
68801;SHT31;55784;50.734;7.086;2022-09-03T11:44:49;25.60;47.96
68801;SHT31;55784;50.734;7.086;2022-09-03T11:52:50;24.98;49.45
68801;SHT31;55784;50.734;7.086;2022-09-03T11:55:32;25.05;49.56
68801;SHT31;55784;50.734;7.086;2022-09-03T11:58:11;24.87;49.80
68801;SHT31;55784;50.734;7.086;2022-09-03T12:00:40;24.87;50.28
68801;SHT31;55784;50.734;7.086;2022-09-03T12:03:13;24.92;50.04
68801;SHT31;55784;50.734;7.086;2022-09-03T12:14:03;24.57;51.11
68801;SHT31;55784;50.734;7.086;2022-09-03T12:21:56;24.64;51.50
68801;SHT31;55784;50.734;7.086;2022-09-03T12:24:25;24.74;51.42
68801;SHT31;55784;50.734;7.086;2022-09-03T12:26:58;24.77;51.08
68801;SHT31;55784;50.734;7.086;2022-09-03T12:29:27;24.79;51.39
68801;SHT31;55784;50.734;7.086;2022-09-03T12:32:05;24.79;51.51
68801;SHT31;55784;50.734;7.086;2022-09-03T12:34:31;24.78;51.78
68801;SHT31;55784;50.734;7.086;2022-09-03T12:36:56;24.87;51.83
68801;SHT31;55784;50.734;7.086;2022-09-03T12:39:26;24.92;51.60
68801;SHT31;55784;50.734;7.086;2022-09-03T12:42:22;25.04;51.76
68801;SHT31;55784;50.734;7.086;2022-09-03T12:44:48;25.14;51.62
68801;SHT31;55784;50.734;7.086;2022-09-03T12:47:16;25.23;51.33
68801;SHT31;55784;50.734;7.086;2022-09-03T12:49:44;25.30;50.74
68801;SHT31;55784;50.734;7.086;2022-09-03T12:52:19;25.33;50.91
68801;SHT31;55784;50.734;7.086;2022-09-03T12:54:53;25.38;50.56
68801;SHT31;55784;50.734;7.086;2022-09-03T13:00:52;25.54;50.29
68801;SHT31;55784;50.734;7.086;2022-09-03T13:03:31;25.65;50.98
68801;SHT31;55784;50.734;7.086;2022-09-03T13:06:01;25.47;50.98
68801;SHT31;55784;50.734;7.086;2022-09-03T13:08:30;25.45;50.88
68801;SHT31;55784;50.734;7.086;2022-09-03T13:10:58;25.69;50.51
68801;SHT31;55784;50.734;7.086;2022-09-03T13:13:33;25.49;50.86
68801;SHT31;55784;50.734;7.086;2022-09-03T13:21:45;25.87;50.29
68801;SHT31;55784;50.734;7.086;2022-09-03T13:27:21;26.03;49.98
68801;SHT31;55784;50.734;7.086;2022-09-03T13:34:56;25.97;49.48
68801;SHT31;55784;50.734;7.086;2022-09-03T13:37:26;26.07;49.25
68801;SHT31;55784;50.734;7.086;2022-09-03T13:40:05;25.98;49.19
68801;SHT31;55784;50.734;7.086;2022-09-03T13:42:37;25.79;49.49
68801;SHT31;55784;50.734;7.086;2022-09-03T13:45:15;25.70;50.03
68801;SHT31;55784;50.734;7.086;2022-09-03T13:47:54;25.97;49.60
68801;SHT31;55784;50.734;7.086;2022-09-03T13:51:05;26.21;48.93
68801;SHT31;55784;50.734;7.086;2022-09-03T13:56:55;26.35;48.69
68801;SHT31;55784;50.734;7.086;2022-09-03T13:59:57;26.34;48.76
68801;SHT31;55784;50.734;7.086;2022-09-03T14:05:37;26.51;48.45
68801;SHT31;55784;50.734;7.086;2022-09-03T14:11:18;26.51;48.59
68801;SHT31;55784;50.734;7.086;2022-09-03T14:19:47;26.35;48.22
68801;SHT31;55784;50.734;7.086;2022-09-03T14:22:23;26.33;48.64
68801;SHT31;55784;50.734;7.086;2022-09-03T14:24:56;26.48;48.40
68801;SHT31;55784;50.734;7.086;2022-09-03T14:27:30;26.64;47.92
68801;SHT31;55784;50.734;7.086;2022-09-03T14:30:01;26.88;47.51
68801;SHT31;55784;50.734;7.086;2022-09-03T14:35:33;27.23;46.45
68801;SHT31;55784;50.734;7.086;2022-09-03T14:38:29;27.35;46.33
68801;SHT31;55784;50.734;7.086;2022-09-03T14:41:14;27.51;46.09
68801;SHT31;55784;50.734;7.086;2022-09-03T14:50:33;27.43;46.17
68801;SHT31;55784;50.734;7.086;2022-09-03T14:53:47;27.29;46.79
68801;SHT31;55784;50.734;7.086;2022-09-03T14:59:37;27.07;47.27
68801;SHT31;55784;50.734;7.086;2022-09-03T15:05:33;27.00;47.73
68801;SHT31;55784;50.734;7.086;2022-09-03T15:11:16;26.94;47.81
68801;SHT31;55784;50.734;7.086;2022-09-03T15:13:58;26.92;47.97
68801;SHT31;55784;50.734;7.086;2022-09-03T15:28:45;27.35;47.19
68801;SHT31;55784;50.734;7.086;2022-09-03T15:34:16;27.53;46.76
68801;SHT31;55784;50.734;7.086;2022-09-03T15:36:50;27.15;50.75
68801;SHT31;55784;50.734;7.086;2022-09-03T15:39:30;26.58;53.25
68801;SHT31;55784;50.734;7.086;2022-09-03T15:42:05;26.16;54.91
68801;SHT31;55784;50.734;7.086;2022-09-03T15:44:41;25.84;55.91
68801;SHT31;55784;50.734;7.086;2022-09-03T15:47:32;25.39;57.20
68801;SHT31;55784;50.734;7.086;2022-09-03T15:53:01;24.98;58.42
68801;SHT31;55784;50.734;7.086;2022-09-03T15:55:33;24.60;59.28
68801;SHT31;55784;50.734;7.086;2022-09-03T15:58:25;24.53;60.17
68801;SHT31;55784;50.734;7.086;2022-09-03T16:00:56;24.51;59.86
68801;SHT31;55784;50.734;7.086;2022-09-03T16:03:48;24.46;59.74
68801;SHT31;55784;50.734;7.086;2022-09-03T16:12:27;24.68;59.52
68801;SHT31;55784;50.734;7.086;2022-09-03T16:15:18;24.33;63.42
68801;SHT31;55784;50.734;7.086;2022-09-03T16:18:01;24.10;64.11
68801;SHT31;55784;50.734;7.086;2022-09-03T16:20:42;24.03;64.88
68801;SHT31;55784;50.734;7.086;2022-09-03T16:26:05;23.70;66.25
68801;SHT31;55784;50.734;7.086;2022-09-03T16:28:54;23.72;66.14
68801;SHT31;55784;50.734;7.086;2022-09-03T16:36:55;23.69;65.92
68801;SHT31;55784;50.734;7.086;2022-09-03T16:39:48;23.62;65.93
68801;SHT31;55784;50.734;7.086;2022-09-03T16:47:58;23.65;65.44
68801;SHT31;55784;50.734;7.086;2022-09-03T16:58:52;23.16;70.53
68801;SHT31;55784;50.734;7.086;2022-09-03T17:09:24;22.88;70.78
68801;SHT31;55784;50.734;7.086;2022-09-03T17:12:22;22.80;71.11
68801;SHT31;55784;50.734;7.086;2022-09-03T17:20:18;22.64;71.37
68801;SHT31;55784;50.734;7.086;2022-09-03T17:25:35;22.54;71.37
68801;SHT31;55784;50.734;7.086;2022-09-03T17:28:25;22.46;71.36
68801;SHT31;55784;50.734;7.086;2022-09-03T17:31:19;22.35;71.68
68801;SHT31;55784;50.734;7.086;2022-09-03T17:34:01;22.17;71.92
68801;SHT31;55784;50.734;7.086;2022-09-03T17:36:35;22.09;72.00
68801;SHT31;55784;50.734;7.086;2022-09-03T17:41:53;21.81;72.73
68801;SHT31;55784;50.734;7.086;2022-09-03T17:55:41;21.17;74.94
68801;SHT31;55784;50.734;7.086;2022-09-03T17:58:16;21.04;75.42
68801;SHT31;55784;50.734;7.086;2022-09-03T18:06:03;20.72;76.98
68801;SHT31;55784;50.734;7.086;2022-09-03T18:08:44;20.60;77.38
68801;SHT31;55784;50.734;7.086;2022-09-03T18:11:22;20.50;77.71
68801;SHT31;55784;50.734;7.086;2022-09-03T18:14:21;20.40;78.04
68801;SHT31;55784;50.734;7.086;2022-09-03T18:16:54;20.33;78.50
68801;SHT31;55784;50.734;7.086;2022-09-03T18:19:36;20.25;78.52
68801;SHT31;55784;50.734;7.086;2022-09-03T18:22:25;20.21;78.94
68801;SHT31;55784;50.734;7.086;2022-09-03T18:25:13;20.08;79.47
68801;SHT31;55784;50.734;7.086;2022-09-03T18:28:00;20.04;79.54
68801;SHT31;55784;50.734;7.086;2022-09-03T18:30:46;19.98;79.77
68801;SHT31;55784;50.734;7.086;2022-09-03T18:33:30;19.91;80.65
68801;SHT31;55784;50.734;7.086;2022-09-03T18:36:15;19.89;80.81
68801;SHT31;55784;50.734;7.086;2022-09-03T18:39:25;19.89;81.02
68801;SHT31;55784;50.734;7.086;2022-09-03T18:42:21;19.82;81.55
68801;SHT31;55784;50.734;7.086;2022-09-03T18:45:25;19.82;81.59
68801;SHT31;55784;50.734;7.086;2022-09-03T18:48:35;19.75;81.74
68801;SHT31;55784;50.734;7.086;2022-09-03T18:51:36;19.67;82.02
68801;SHT31;55784;50.734;7.086;2022-09-03T18:54:30;19.64;81.99
68801;SHT31;55784;50.734;7.086;2022-09-03T18:57:48;19.60;82.10
68801;SHT31;55784;50.734;7.086;2022-09-03T19:00:42;19.61;82.27
68801;SHT31;55784;50.734;7.086;2022-09-03T19:03:48;19.55;82.36
68801;SHT31;55784;50.734;7.086;2022-09-03T19:06:57;19.53;82.27
68801;SHT31;55784;50.734;7.086;2022-09-03T19:09:56;19.58;81.94
68801;SHT31;55784;50.734;7.086;2022-09-03T19:16:05;19.62;82.02
68801;SHT31;55784;50.734;7.086;2022-09-03T19:22:06;19.57;82.03
68801;SHT31;55784;50.734;7.086;2022-09-03T19:24:55;19.54;82.35
68801;SHT31;55784;50.734;7.086;2022-09-03T19:28:18;19.47;82.46
68801;SHT31;55784;50.734;7.086;2022-09-03T19:31:35;19.41;82.61
68801;SHT31;55784;50.734;7.086;2022-09-03T19:35:02;19.41;82.67
68801;SHT31;55784;50.734;7.086;2022-09-03T19:38:03;19.46;82.61
68801;SHT31;55784;50.734;7.086;2022-09-03T19:47:02;19.34;82.96
68801;SHT31;55784;50.734;7.086;2022-09-03T19:53:06;19.26;83.23
68801;SHT31;55784;50.734;7.086;2022-09-03T19:55:57;19.21;83.26
68801;SHT31;55784;50.734;7.086;2022-09-03T19:58:53;19.21;83.45
68801;SHT31;55784;50.734;7.086;2022-09-03T20:01:38;19.20;83.31
68801;SHT31;55784;50.734;7.086;2022-09-03T20:04:37;19.23;83.57
68801;SHT31;55784;50.734;7.086;2022-09-03T20:07:22;19.16;83.74
68801;SHT31;55784;50.734;7.086;2022-09-03T20:10:10;19.11;84.35
68801;SHT31;55784;50.734;7.086;2022-09-03T20:16:15;19.06;84.45
68801;SHT31;55784;50.734;7.086;2022-09-03T20:19:17;19.02;84.86
68801;SHT31;55784;50.734;7.086;2022-09-03T20:21:58;19.02;84.81
68801;SHT31;55784;50.734;7.086;2022-09-03T20:30:11;18.87;85.26
68801;SHT31;55784;50.734;7.086;2022-09-03T20:32:53;18.86;85.49
68801;SHT31;55784;50.734;7.086;2022-09-03T20:35:30;18.79;85.44
68801;SHT31;55784;50.734;7.086;2022-09-03T20:41:12;18.75;85.87
68801;SHT31;55784;50.734;7.086;2022-09-03T20:55:40;18.62;85.95